Time,TemperatureF,DewpointF,PressureIn,WindDirection,WindDirectionDegrees,WindSpeedMPH,WindSpeedGustMPH,Humidity,HourlyPrecipIn,Conditions,Clouds,dailyrainin,SoftwareType,DateUTC
2013-08-28 00:02:00,68.5,64.5,29.90,WNW,292,0.0,0.0,87,0.00,RA,SCT,0.00,WeatherDisplay:10.37,2013-08-28 04:02:00,
2013-08-28 00:18:00,68.7,65.3,29.90,WNW,295,0.0,0.0,89,0.00,BKN,SCT,0.00,WeatherDisplay:10.37,2013-08-28 04:18:00,
2013-08-28 00:34:00,68.7,65.3,29.90,West,274,0.0,0.0,89,0.00,BKN,SCT,0.00,WeatherDisplay:10.37,2013-08-28 04:34:00,
2013-08-28 00:48:00,68.5,65.1,29.90,NW,314,0.0,0.0,89,0.00,BKN,SCT,0.00,WeatherDisplay:10.37,2013-08-28 04:48:00,
2013-08-28 01:04:00,68.2,64.2,29.90,West,267,0.0,0.0,87,0.00,BKN,SCT,0.00,WeatherDisplay:10.37,2013-08-28 05:04:00,
2013-08-28 01:18:00,67.8,63.8,29.89,WSW,254,0.0,0.0,87,0.00,BKN,SCT,0.00,WeatherDisplay:10.37,2013-08-28 05:18:00,
2013-08-28 01:33:00,67.5,63.5,29.89,NW,315,0.0,0.0,87,0.00,BKN,SCT,0.00,WeatherDisplay:10.37,2013-08-28 05:33:00,
2013-08-28 01:49:00,66.9,62.9,29.89,West,264,0.0,0.0,87,0.00,BKN,SCT,0.00,WeatherDisplay:10.37,2013-08-28 05:49:00,
2013-08-28 02:04:00,66.4,63.1,29.88,WNW,285,0.0,0.0,89,0.00,SCT,SCT,0.00,WeatherDisplay:10.37,2013-08-28 06:04:00,
2013-08-28 02:19:00,66.2,62.9,29.88,West,274,0.0,0.0,89,0.00,SCT,SCT,0.00,WeatherDisplay:10.37,2013-08-28 06:19:00,
2013-08-28 02:33:00,65.8,62.5,29.88,NW,315,0.0,0.0,89,0.00,SCT,SCT,0.00,WeatherDisplay:10.37,2013-08-28 06:33:00,
2013-08-28 02:49:00,65.3,62.0,29.88,WSW,257,0.0,0.0,89,0.00,SCT,SCT,0.00,WeatherDisplay:10.37,2013-08-28 06:49:00,
2013-08-28 03:03:00,64.9,61.6,29.88,West,278,0.0,0.0,89,0.00,CLR,SCT,0.00,WeatherDisplay:10.37,2013-08-28 07:03:00,
2013-08-28 03:18:00,64.7,61.4,29.88,West,268,0.0,0.0,89,0.00,CLR,SCT,0.00,WeatherDisplay:10.37,2013-08-28 07:18:00,
2013-08-28 03:33:00,64.6,61.3,29.87,SSW,201,0.0,0.0,89,0.00,CLR,SCT,0.00,WeatherDisplay:10.37,2013-08-28 07:33:00,
2013-08-28 03:48:00,64.2,60.9,29.87,SSW,201,0.0,0.0,89,0.00,CLR,SCT,0.00,WeatherDisplay:10.37,2013-08-28 07:48:00,
2013-08-28 04:04:00,63.9,61.8,29.87,SW,215,0.0,0.0,93,0.00,CLR,SCT,0.00,WeatherDisplay:10.37,2013-08-28 08:04:00,
2013-08-28 04:18:00,63.7,61.6,29.87,SW,220,0.0,0.0,93,0.00,CLR,SCT,0.00,WeatherDisplay:10.37,2013-08-28 08:18:00,
2013-08-28 04:33:00,64.0,61.9,29.87,SW,227,0.0,0.0,93,0.00,CLR,SCT,0.00,WeatherDisplay:10.37,2013-08-28 08:33:00,
2013-08-28 04:48:00,64.2,62.1,29.88,NNW,330,0.0,0.0,93,0.00,CLR,SCT,0.00,WeatherDisplay:10.37,2013-08-28 08:48:00,
2013-08-28 05:03:00,64.2,61.2,29.88,West,271,0.0,0.0,90,0.00,BKN,SCT,0.00,WeatherDisplay:10.37,2013-08-28 09:03:00,
2013-08-28 05:18:00,64.2,61.2,29.88,West,274,0.0,0.0,90,0.00,BKN,SCT,0.00,WeatherDisplay:10.37,2013-08-28 09:18:00,
2013-08-28 05:33:00,63.9,60.9,29.88,SE,134,0.0,0.0,90,0.00,BKN,SCT,0.00,WeatherDisplay:10.37,2013-08-28 09:33:00,
2013-08-28 05:48:00,63.7,60.7,29.88,West,279,0.0,0.0,90,0.00,BKN,SCT,0.00,WeatherDisplay:10.37,2013-08-28 09:48:00,
2013-08-28 06:03:00,63.5,60.2,29.89,WSW,242,0.0,0.0,89,0.00,CLR,SCT,0.00,WeatherDisplay:10.37,2013-08-28 10:03:00,
2013-08-28 06:18:00,63.1,59.8,29.89,ESE,119,0.0,0.0,89,0.00,CLR,SCT,0.00,WeatherDisplay:10.37,2013-08-28 10:18:00,
2013-08-28 06:34:00,63.1,59.8,29.90,WNW,282,0.0,0.0,89,0.00,CLR,SCT,0.00,WeatherDisplay:10.37,2013-08-28 10:34:00,
2013-08-28 06:49:00,63.3,60.0,29.90,SSE,155,0.0,0.0,89,0.00,CLR,SCT,0.00,WeatherDisplay:10.37,2013-08-28 10:49:00,
2013-08-28 07:03:00,64.0,60.1,29.90,West,265,0.0,0.0,87,0.00,CLR,SCT,0.00,WeatherDisplay:10.37,2013-08-28 11:03:00,
2013-08-28 07:18:00,64.8,60.8,29.90,WSW,241,0.0,0.0,87,0.00,CLR,SCT,0.00,WeatherDisplay:10.37,2013-08-28 11:18:00,
2013-08-28 07:34:00,65.2,61.2,29.90,West,262,0.0,0.0,87,0.00,CLR,SCT,0.00,WeatherDisplay:10.37,2013-08-28 11:34:00,
2013-08-28 07:49:00,65.8,61.8,29.91,West,259,0.0,0.0,87,0.00,CLR,SCT,0.00,WeatherDisplay:10.37,2013-08-28 11:49:00,
2013-08-28 08:04:00,66.7,61.7,29.91,WSW,244,0.0,0.0,84,0.00,CLR,SCT,0.00,WeatherDisplay:10.37,2013-08-28 12:04:00,
2013-08-28 08:19:00,68.0,63.0,29.91,SSE,150,0.0,0.0,84,0.00,CLR,SCT,0.00,WeatherDisplay:10.37,2013-08-28 12:19:00,
2013-08-28 08:33:00,69.3,64.3,29.91,SE,139,0.0,0.0,84,0.00,CLR,SCT,0.00,WeatherDisplay:10.37,2013-08-28 12:33:00,
2013-08-28 08:49:00,70.8,65.8,29.91,ESE,110,0.0,0.0,84,0.00,CLR,SCT,0.00,WeatherDisplay:10.37,2013-08-28 12:49:00,
2013-08-28 09:04:00,76.6,67.7,29.91,WSW,254,0.0,0.0,74,0.00,CLR,SCT,0.00,WeatherDisplay:10.37,2013-08-28 13:04:00,
2013-08-28 09:18:00,80.8,70.5,29.91,NW,326,0.0,0.0,71,0.00,CLR,SCT,0.00,WeatherDisplay:10.37,2013-08-28 13:18:00,
2013-08-28 09:34:00,78.1,67.9,29.91,NNE,25,0.0,0.0,71,0.00,CLR,SCT,0.00,WeatherDisplay:10.37,2013-08-28 13:34:00,
2013-08-28 09:48:00,77.6,67.4,29.92,North,2,2.0,5.0,71,0.00,CLR,SCT,0.00,WeatherDisplay:10.37,2013-08-28 13:48:00,
2013-08-28 10:04:00,80.7,67.8,29.91,NNE,20,0.0,2.0,65,0.00,CLR,SCT,0.00,WeatherDisplay:10.37,2013-08-28 14:04:00,
2013-08-28 10:19:00,80.3,66.1,29.91,WSW,256,0.0,6.0,62,0.00,CLR,SCT,0.00,WeatherDisplay:10.37,2013-08-28 14:19:00,
2013-08-28 10:34:00,80.1,65.9,29.91,SE,144,0.0,0.0,62,0.00,CLR,SCT,0.00,WeatherDisplay:10.37,2013-08-28 14:34:00,
2013-08-28 10:48:00,79.8,65.6,29.91,NNW,331,3.0,6.0,62,0.00,CLR,SCT,0.00,WeatherDisplay:10.37,2013-08-28 14:48:00,
2013-08-28 11:04:00,82.5,65.2,29.90,East,80,2.0,4.0,56,0.00,CLR,SCT,0.00,WeatherDisplay:10.37,2013-08-28 15:04:00,
2013-08-28 11:19:00,83.1,64.7,29.90,NNE,27,0.0,3.0,54,0.00,CLR,SCT,0.00,WeatherDisplay:10.37,2013-08-28 15:19:00,
2013-08-28 11:34:00,82.5,64.2,29.91,NE,35,0.0,0.0,54,0.00,CLR,SCT,0.00,WeatherDisplay:10.37,2013-08-28 15:34:00,
2013-08-28 11:49:00,81.9,63.7,29.90,North,1,2.0,4.0,54,0.00,CLR,SCT,0.00,WeatherDisplay:10.37,2013-08-28 15:49:00,
2013-08-28 12:03:00,82.4,63.0,29.90,NE,42,1.0,5.0,52,0.00,CLR,SCT,0.00,WeatherDisplay:10.37,2013-08-28 16:03:00,
2013-08-28 12:18:00,82.8,63.4,29.89,SSE,160,0.0,3.0,52,0.00,CLR,SCT,0.00,WeatherDisplay:10.37,2013-08-28 16:18:00,
2013-08-28 12:34:00,85.2,65.6,29.89,East,80,0.0,0.0,52,0.00,CLR,SCT,0.00,WeatherDisplay:10.37,2013-08-28 16:34:00,
2013-08-28 12:49:00,86.7,66.9,29.88,ENE,66,0.0,0.0,52,0.00,CLR,SCT,0.00,WeatherDisplay:10.37,2013-08-28 16:49:00,
2013-08-28 13:04:00,86.6,65.1,29.88,ENE,59,0.0,0.0,49,0.00,CLR,SCT,0.00,WeatherDisplay:10.37,2013-08-28 17:04:00,
2013-08-28 13:19:00,86.3,64.9,29.88,North,11,3.0,5.0,49,0.00,CLR,SCT,0.00,WeatherDisplay:10.37,2013-08-28 17:19:00,
2013-08-28 13:34:00,86.6,65.1,29.88,NE,53,1.0,3.0,49,0.00,CLR,SCT,0.00,WeatherDisplay:10.37,2013-08-28 17:34:00,
2013-08-28 13:49:00,88.0,66.4,29.88,NNE,21,3.0,6.0,49,0.00,CLR,SCT,0.00,WeatherDisplay:10.37,2013-08-28 17:49:00,
2013-08-28 14:04:00,86.2,63.6,29.86,NNE,13,0.0,5.0,47,0.00,CLR,SCT,0.00,WeatherDisplay:10.37,2013-08-28 18:04:00,
2013-08-28 14:19:00,86.5,63.9,29.86,ENE,58,2.0,7.0,47,0.00,CLR,SCT,0.00,WeatherDisplay:10.37,2013-08-28 18:19:00,
2013-08-28 14:34:00,84.6,62.2,29.86,East,89,2.0,5.0,47,0.00,CLR,SCT,0.00,WeatherDisplay:10.37,2013-08-28 18:34:00,
2013-08-28 14:49:00,84.0,61.6,29.86,ENE,59,1.0,3.0,47,0.00,CLR,SCT,0.00,WeatherDisplay:10.37,2013-08-28 18:49:00,
2013-08-28 15:04:00,83.6,58.7,29.86,East,84,0.0,2.0,43,0.00,CLR,SCT,0.00,WeatherDisplay:10.37,2013-08-28 19:04:00,
2013-08-28 15:19:00,82.7,57.9,29.86,NE,34,0.0,0.0,43,0.00,CLR,SCT,0.00,WeatherDisplay:10.37,2013-08-28 19:19:00,
2013-08-28 15:34:00,82.8,58.0,29.85,NE,47,0.0,0.0,43,0.00,CLR,SCT,0.00,WeatherDisplay:10.37,2013-08-28 19:34:00,
2013-08-28 15:49:00,82.8,58.1,29.85,NE,42,0.0,0.0,43,0.00,CLR,SCT,0.00,WeatherDisplay:10.37,2013-08-28 19:49:00,
2013-08-28 16:04:00,84.0,62.2,29.85,NE,39,0.0,0.0,48,0.00,CLR,SCT,0.00,WeatherDisplay:10.37,2013-08-28 20:04:00,
2013-08-28 16:19:00,83.7,62.5,29.86,NE,38,0.0,0.0,49,0.00,CLR,SCT,0.00,WeatherDisplay:10.37,2013-08-28 20:19:00,
2013-08-28 16:34:00,82.8,61.7,29.85,NNE,25,0.0,0.0,49,0.00,CLR,SCT,0.00,WeatherDisplay:10.37,2013-08-28 20:34:00,
2013-08-28 16:49:00,82.6,61.5,29.86,NE,50,0.0,0.0,49,0.00,CLR,SCT,0.00,WeatherDisplay:10.37,2013-08-28 20:49:00,
2013-08-28 17:03:00,82.0,63.2,29.86,NE,37,2.0,5.0,53,0.00,BKN,SCT,0.00,WeatherDisplay:10.37,2013-08-28 21:03:00,
2013-08-28 17:18:00,81.0,62.8,29.87,NE,42,1.0,6.0,54,0.00,BKN,SCT,0.00,WeatherDisplay:10.37,2013-08-28 21:18:00,
2013-08-28 17:34:00,79.8,61.7,29.87,NNE,19,1.0,5.0,54,0.00,BKN,SCT,0.00,WeatherDisplay:10.37,2013-08-28 21:34:00,
2013-08-28 17:49:00,79.3,61.2,29.87,NNE,17,0.0,5.0,54,0.00,BKN,SCT,0.00,WeatherDisplay:10.37,2013-08-28 21:49:00,
2013-08-28 18:04:00,78.4,60.9,29.87,North,356,1.0,3.0,55,0.00,BKN,SCT,0.00,WeatherDisplay:10.37,2013-08-28 22:04:00,
2013-08-28 18:19:00,77.9,60.4,29.88,NNE,14,0.0,1.0,55,0.00,BKN,SCT,0.00,WeatherDisplay:10.37,2013-08-28 22:19:00,
2013-08-28 18:34:00,77.4,60.0,29.88,NNW,345,0.0,4.0,55,0.00,BKN,SCT,0.00,WeatherDisplay:10.37,2013-08-28 22:34:00,
2013-08-28 18:49:00,77.2,59.8,29.89,WNW,292,0.0,0.0,55,0.00,BKN,SCT,0.00,WeatherDisplay:10.37,2013-08-28 22:49:00,
2013-08-28 19:04:00,76.3,60.9,29.90,NNW,343,0.0,0.0,59,0.00,FEW,SCT,0.00,WeatherDisplay:10.37,2013-08-28 23:04:00,
2013-08-28 19:19:00,75.7,60.4,29.90,East,96,0.0,0.0,59,0.00,FEW,SCT,0.00,WeatherDisplay:10.37,2013-08-28 23:19:00,
2013-08-28 19:34:00,75.2,59.9,29.91,East,83,0.0,0.0,59,0.00,FEW,SCT,0.00,WeatherDisplay:10.37,2013-08-28 23:34:00,
2013-08-28 19:49:00,74.8,59.5,29.91,North,1,0.0,0.0,59,0.00,FEW,SCT,0.00,WeatherDisplay:10.37,2013-08-28 23:49:00,
2013-08-28 20:04:00,73.9,57.7,29.91,NW,315,0.0,0.0,57,0.00,BKN,SCT,0.00,WeatherDisplay:10.37,2013-08-29 00:04:00,
2013-08-28 20:19:00,72.9,56.8,29.92,NW,315,0.0,0.0,57,0.00,BKN,SCT,0.00,WeatherDisplay:10.37,2013-08-29 00:19:00,
2013-08-28 20:34:00,72.0,55.9,29.92,NNW,329,0.0,0.0,57,0.00,BKN,SCT,0.00,WeatherDisplay:10.37,2013-08-29 00:34:00,
2013-08-28 20:49:00,71.6,55.6,29.92,WSW,245,0.0,0.0,57,0.00,BKN,SCT,0.00,WeatherDisplay:10.37,2013-08-29 00:49:00,
2013-08-28 21:04:00,70.9,58.5,29.93,SW,235,0.0,0.0,65,0.00,CLR,SCT,0.00,WeatherDisplay:10.37,2013-08-29 01:04:00,
2013-08-28 21:19:00,70.3,59.2,29.93,WNW,286,0.0,0.0,68,0.00,CLR,SCT,0.00,WeatherDisplay:10.37,2013-08-29 01:19:00,
2013-08-28 21:34:00,69.8,58.8,29.94,West,266,0.0,0.0,68,0.00,CLR,SCT,0.00,WeatherDisplay:10.37,2013-08-29 01:34:00,
2013-08-28 21:49:00,69.4,58.4,29.94,NE,41,0.0,0.0,68,0.00,CLR,SCT,0.00,WeatherDisplay:10.37,2013-08-29 01:49:00,
2013-08-28 22:04:00,68.9,61.0,29.94,NW,308,0.0,0.0,76,0.00,CLR,SCT,0.00,WeatherDisplay:10.37,2013-08-29 02:04:00,
2013-08-28 22:19:00,68.4,61.3,29.94,North,6,0.0,0.0,78,0.00,CLR,SCT,0.00,WeatherDisplay:10.37,2013-08-29 02:19:00,
2013-08-28 22:34:00,68.4,61.3,29.95,NNW,337,0.0,0.0,78,0.00,CLR,SCT,0.00,WeatherDisplay:10.37,2013-08-29 02:34:00,
2013-08-28 22:49:00,68.5,61.4,29.95,NW,320,0.0,0.0,78,0.00,CLR,SCT,0.00,WeatherDisplay:10.37,2013-08-29 02:49:00,
2013-08-28 23:04:00,68.9,61.8,29.97,North,3,0.0,0.0,78,0.00,OVC,SCT,0.00,WeatherDisplay:10.37,2013-08-29 03:04:00,
2013-08-28 23:19:00,68.9,61.8,29.98,NNW,343,0.0,0.0,78,0.00,OVC,SCT,0.00,WeatherDisplay:10.37,2013-08-29 03:19:00,
2013-08-28 23:34:00,69.1,61.9,29.98,NW,326,1.0,7.0,78,0.00,OVC,SCT,0.00,WeatherDisplay:10.37,2013-08-29 03:34:00,
2013-08-28 23:49:00,69.1,61.9,29.98,NNW,328,0.0,5.0,78,0.00,OVC,SCT,0.00,WeatherDisplay:10.37,2013-08-29 03:49:00,